sensor_id;sensor_type;location;lat;lon;timestamp;P1;durP1;ratioP1;P2;durP2;ratioP2
66567;SDS011;53422;49.296;6.900;2023-02-03T00:00:26;5.97;;;2.55;;
66567;SDS011;53422;49.296;6.900;2023-02-03T00:02:53;4.20;;;2.13;;
66567;SDS011;53422;49.296;6.900;2023-02-03T00:05:19;7.75;;;2.97;;
66567;SDS011;53422;49.296;6.900;2023-02-03T00:07:45;7.75;;;1.83;;
66567;SDS011;53422;49.296;6.900;2023-02-03T00:10:12;5.45;;;1.80;;
66567;SDS011;53422;49.296;6.900;2023-02-03T00:12:39;4.13;;;1.85;;
66567;SDS011;53422;49.296;6.900;2023-02-03T00:15:05;1.95;;;1.08;;
66567;SDS011;53422;49.296;6.900;2023-02-03T00:17:31;4.28;;;2.00;;
66567;SDS011;53422;49.296;6.900;2023-02-03T00:19:56;5.93;;;2.28;;
66567;SDS011;53422;49.296;6.900;2023-02-03T00:22:22;3.42;;;1.55;;
66567;SDS011;53422;49.296;6.900;2023-02-03T00:24:48;4.82;;;2.03;;
66567;SDS011;53422;49.296;6.900;2023-02-03T00:27:13;4.07;;;2.00;;
66567;SDS011;53422;49.296;6.900;2023-02-03T00:29:39;5.32;;;1.55;;
66567;SDS011;53422;49.296;6.900;2023-02-03T00:32:05;5.40;;;2.08;;
66567;SDS011;53422;49.296;6.900;2023-02-03T00:34:30;5.90;;;2.38;;
66567;SDS011;53422;49.296;6.900;2023-02-03T00:36:56;5.35;;;2.45;;
66567;SDS011;53422;49.296;6.900;2023-02-03T00:39:22;7.22;;;2.55;;
66567;SDS011;53422;49.296;6.900;2023-02-03T00:41:48;4.93;;;1.88;;
66567;SDS011;53422;49.296;6.900;2023-02-03T00:44:13;3.75;;;1.88;;
66567;SDS011;53422;49.296;6.900;2023-02-03T00:46:39;3.70;;;1.98;;
66567;SDS011;53422;49.296;6.900;2023-02-03T00:49:05;3.33;;;1.40;;
66567;SDS011;53422;49.296;6.900;2023-02-03T00:51:31;4.13;;;2.20;;
66567;SDS011;53422;49.296;6.900;2023-02-03T00:53:58;3.30;;;2.05;;
66567;SDS011;53422;49.296;6.900;2023-02-03T00:56:24;2.78;;;1.55;;
66567;SDS011;53422;49.296;6.900;2023-02-03T00:58:50;4.88;;;1.90;;
66567;SDS011;53422;49.296;6.900;2023-02-03T01:01:15;6.07;;;2.28;;
66567;SDS011;53422;49.296;6.900;2023-02-03T01:03:41;3.25;;;1.33;;
66567;SDS011;53422;49.296;6.900;2023-02-03T01:06:25;6.22;;;2.13;;
66567;SDS011;53422;49.296;6.900;2023-02-03T01:08:51;3.05;;;1.65;;
66567;SDS011;53422;49.296;6.900;2023-02-03T01:11:21;5.30;;;2.17;;
66567;SDS011;53422;49.296;6.900;2023-02-03T01:13:48;9.65;;;2.92;;
66567;SDS011;53422;49.296;6.900;2023-02-03T01:16:20;5.70;;;2.40;;
66567;SDS011;53422;49.296;6.900;2023-02-03T01:18:47;9.00;;;3.72;;
66567;SDS011;53422;49.296;6.900;2023-02-03T01:21:14;9.68;;;4.13;;
66567;SDS011;53422;49.296;6.900;2023-02-03T01:23:43;15.20;;;4.63;;
66567;SDS011;53422;49.296;6.900;2023-02-03T01:26:11;9.15;;;4.05;;
66567;SDS011;53422;49.296;6.900;2023-02-03T01:28:39;3.75;;;2.45;;
66567;SDS011;53422;49.296;6.900;2023-02-03T01:31:15;12.77;;;4.68;;
66567;SDS011;53422;49.296;6.900;2023-02-03T01:33:45;5.32;;;2.38;;
66567;SDS011;53422;49.296;6.900;2023-02-03T01:36:13;10.07;;;3.60;;
66567;SDS011;53422;49.296;6.900;2023-02-03T01:38:42;8.70;;;3.15;;
66567;SDS011;53422;49.296;6.900;2023-02-03T01:41:09;7.22;;;1.92;;
66567;SDS011;53422;49.296;6.900;2023-02-03T01:43:38;4.78;;;1.92;;
66567;SDS011;53422;49.296;6.900;2023-02-03T01:46:28;5.60;;;2.17;;
66567;SDS011;53422;49.296;6.900;2023-02-03T01:49:07;4.28;;;1.95;;
66567;SDS011;53422;49.296;6.900;2023-02-03T01:51:37;7.53;;;3.25;;
66567;SDS011;53422;49.296;6.900;2023-02-03T01:54:10;5.57;;;2.40;;
66567;SDS011;53422;49.296;6.900;2023-02-03T01:56:41;6.97;;;2.83;;
66567;SDS011;53422;49.296;6.900;2023-02-03T01:59:11;6.38;;;2.63;;
66567;SDS011;53422;49.296;6.900;2023-02-03T02:01:40;5.20;;;2.28;;
66567;SDS011;53422;49.296;6.900;2023-02-03T02:04:05;4.82;;;2.10;;
66567;SDS011;53422;49.296;6.900;2023-02-03T02:06:32;5.70;;;2.67;;
66567;SDS011;53422;49.296;6.900;2023-02-03T02:08:58;7.78;;;3.05;;
66567;SDS011;53422;49.296;6.900;2023-02-03T02:11:25;5.68;;;1.85;;
66567;SDS011;53422;49.296;6.900;2023-02-03T02:13:52;5.45;;;2.15;;
66567;SDS011;53422;49.296;6.900;2023-02-03T02:16:30;2.83;;;1.73;;
66567;SDS011;53422;49.296;6.900;2023-02-03T02:33:40;7.32;;;2.13;;
66567;SDS011;53422;49.296;6.900;2023-02-03T02:38:58;8.32;;;3.08;;
66567;SDS011;53422;49.296;6.900;2023-02-03T02:42:00;2.28;;;1.30;;
66567;SDS011;53422;49.296;6.900;2023-02-03T02:44:34;4.10;;;2.47;;
66567;SDS011;53422;49.296;6.900;2023-02-03T02:47:05;7.22;;;3.38;;
66567;SDS011;53422;49.296;6.900;2023-02-03T02:49:57;6.43;;;2.90;;
66567;SDS011;53422;49.296;6.900;2023-02-03T02:52:23;4.68;;;2.40;;
66567;SDS011;53422;49.296;6.900;2023-02-03T02:54:52;5.47;;;2.42;;
66567;SDS011;53422;49.296;6.900;2023-02-03T02:57:21;4.07;;;2.33;;
66567;SDS011;53422;49.296;6.900;2023-02-03T02:59:50;5.47;;;2.30;;
66567;SDS011;53422;49.296;6.900;2023-02-03T03:02:15;4.95;;;2.70;;
66567;SDS011;53422;49.296;6.900;2023-02-03T03:04:42;5.55;;;3.00;;
66567;SDS011;53422;49.296;6.900;2023-02-03T03:07:22;6.82;;;3.33;;
66567;SDS011;53422;49.296;6.900;2023-02-03T03:09:53;5.20;;;2.72;;
66567;SDS011;53422;49.296;6.900;2023-02-03T03:12:36;6.18;;;2.80;;
66567;SDS011;53422;49.296;6.900;2023-02-03T03:15:10;6.50;;;2.58;;
66567;SDS011;53422;49.296;6.900;2023-02-03T03:17:40;7.18;;;3.45;;
66567;SDS011;53422;49.296;6.900;2023-02-03T03:20:12;8.40;;;3.10;;
66567;SDS011;53422;49.296;6.900;2023-02-03T03:22:46;2.53;;;1.55;;
66567;SDS011;53422;49.296;6.900;2023-02-03T03:25:17;5.72;;;2.38;;
66567;SDS011;53422;49.296;6.900;2023-02-03T03:27:49;8.10;;;3.22;;
66567;SDS011;53422;49.296;6.900;2023-02-03T03:30:33;6.70;;;2.70;;
66567;SDS011;53422;49.296;6.900;2023-02-03T03:33:01;6.05;;;2.05;;
66567;SDS011;53422;49.296;6.900;2023-02-03T03:35:35;5.95;;;3.17;;
66567;SDS011;53422;49.296;6.900;2023-02-03T03:38:14;7.70;;;2.33;;
66567;SDS011;53422;49.296;6.900;2023-02-03T03:41:14;7.05;;;1.77;;
66567;SDS011;53422;49.296;6.900;2023-02-03T03:43:49;4.75;;;2.22;;
66567;SDS011;53422;49.296;6.900;2023-02-03T03:46:18;5.15;;;3.00;;
66567;SDS011;53422;49.296;6.900;2023-02-03T03:48:56;6.25;;;2.53;;
66567;SDS011;53422;49.296;6.900;2023-02-03T03:51:34;4.05;;;1.88;;
66567;SDS011;53422;49.296;6.900;2023-02-03T03:54:12;6.70;;;2.90;;
66567;SDS011;53422;49.296;6.900;2023-02-03T03:56:49;7.57;;;3.20;;
66567;SDS011;53422;49.296;6.900;2023-02-03T03:59:25;3.42;;;1.80;;
66567;SDS011;53422;49.296;6.900;2023-02-03T04:01:54;4.80;;;2.38;;
66567;SDS011;53422;49.296;6.900;2023-02-03T04:04:21;5.85;;;2.40;;
66567;SDS011;53422;49.296;6.900;2023-02-03T04:06:48;5.53;;;2.78;;
66567;SDS011;53422;49.296;6.900;2023-02-03T04:09:13;4.97;;;2.08;;
66567;SDS011;53422;49.296;6.900;2023-02-03T04:11:39;4.47;;;2.00;;
66567;SDS011;53422;49.296;6.900;2023-02-03T04:14:24;6.60;;;2.40;;
66567;SDS011;53422;49.296;6.900;2023-02-03T04:16:49;3.55;;;1.77;;
66567;SDS011;53422;49.296;6.900;2023-02-03T04:19:15;3.50;;;1.75;;
66567;SDS011;53422;49.296;6.900;2023-02-03T04:21:41;5.97;;;2.58;;
66567;SDS011;53422;49.296;6.900;2023-02-03T04:24:06;5.38;;;2.45;;
66567;SDS011;53422;49.296;6.900;2023-02-03T04:26:32;6.22;;;1.90;;
66567;SDS011;53422;49.296;6.900;2023-02-03T04:28:58;5.50;;;1.23;;
66567;SDS011;53422;49.296;6.900;2023-02-03T04:31:23;4.95;;;2.55;;
66567;SDS011;53422;49.296;6.900;2023-02-03T04:33:49;5.97;;;2.60;;
66567;SDS011;53422;49.296;6.900;2023-02-03T04:36:15;4.00;;;2.15;;
66567;SDS011;53422;49.296;6.900;2023-02-03T04:38:40;5.28;;;2.33;;
66567;SDS011;53422;49.296;6.900;2023-02-03T04:41:06;5.55;;;2.53;;
66567;SDS011;53422;49.296;6.900;2023-02-03T04:43:31;5.55;;;2.25;;
66567;SDS011;53422;49.296;6.900;2023-02-03T04:46:00;5.22;;;2.15;;
66567;SDS011;53422;49.296;6.900;2023-02-03T04:48:27;6.78;;;2.55;;
66567;SDS011;53422;49.296;6.900;2023-02-03T04:50:53;7.57;;;2.35;;
66567;SDS011;53422;49.296;6.900;2023-02-03T04:53:18;3.30;;;1.83;;
66567;SDS011;53422;49.296;6.900;2023-02-03T04:55:47;5.63;;;2.15;;
66567;SDS011;53422;49.296;6.900;2023-02-03T04:58:13;5.35;;;2.47;;
66567;SDS011;53422;49.296;6.900;2023-02-03T05:00:39;6.80;;;1.80;;
66567;SDS011;53422;49.296;6.900;2023-02-03T05:03:04;4.50;;;2.20;;
66567;SDS011;53422;49.296;6.900;2023-02-03T05:05:30;4.22;;;1.25;;
66567;SDS011;53422;49.296;6.900;2023-02-03T05:07:56;3.70;;;1.63;;
66567;SDS011;53422;49.296;6.900;2023-02-03T05:10:21;3.45;;;1.83;;
66567;SDS011;53422;49.296;6.900;2023-02-03T05:12:47;4.80;;;2.58;;
66567;SDS011;53422;49.296;6.900;2023-02-03T05:15:13;4.50;;;2.30;;
66567;SDS011;53422;49.296;6.900;2023-02-03T05:17:38;4.68;;;2.28;;
66567;SDS011;53422;49.296;6.900;2023-02-03T05:20:05;5.72;;;2.15;;
66567;SDS011;53422;49.296;6.900;2023-02-03T05:22:31;4.13;;;1.20;;
66567;SDS011;53422;49.296;6.900;2023-02-03T05:24:59;6.15;;;2.42;;
66567;SDS011;53422;49.296;6.900;2023-02-03T05:27:25;6.22;;;2.03;;
66567;SDS011;53422;49.296;6.900;2023-02-03T05:29:51;1.38;;;0.93;;
66567;SDS011;53422;49.296;6.900;2023-02-03T05:32:16;3.85;;;1.42;;
66567;SDS011;53422;49.296;6.900;2023-02-03T05:34:42;5.95;;;2.47;;
66567;SDS011;53422;49.296;6.900;2023-02-03T05:37:08;2.75;;;1.25;;
66567;SDS011;53422;49.296;6.900;2023-02-03T05:39:33;4.03;;;1.25;;
66567;SDS011;53422;49.296;6.900;2023-02-03T05:41:59;4.28;;;2.17;;
66567;SDS011;53422;49.296;6.900;2023-02-03T05:44:25;4.18;;;1.98;;
66567;SDS011;53422;49.296;6.900;2023-02-03T05:46:53;3.80;;;2.05;;
66567;SDS011;53422;49.296;6.900;2023-02-03T05:49:20;6.18;;;2.20;;
66567;SDS011;53422;49.296;6.900;2023-02-03T05:51:47;3.70;;;2.00;;
66567;SDS011;53422;49.296;6.900;2023-02-03T05:54:13;5.47;;;2.22;;
66567;SDS011;53422;49.296;6.900;2023-02-03T05:56:39;4.28;;;2.33;;
66567;SDS011;53422;49.296;6.900;2023-02-03T05:59:05;4.30;;;2.67;;
66567;SDS011;53422;49.296;6.900;2023-02-03T06:01:31;5.28;;;2.40;;
66567;SDS011;53422;49.296;6.900;2023-02-03T06:03:58;6.28;;;1.88;;
66567;SDS011;53422;49.296;6.900;2023-02-03T06:06:24;4.60;;;1.75;;
66567;SDS011;53422;49.296;6.900;2023-02-03T06:08:51;2.85;;;1.70;;
66567;SDS011;53422;49.296;6.900;2023-02-03T06:11:20;5.07;;;2.28;;
66567;SDS011;53422;49.296;6.900;2023-02-03T06:13:48;4.55;;;1.83;;
66567;SDS011;53422;49.296;6.900;2023-02-03T06:16:14;4.85;;;2.03;;
66567;SDS011;53422;49.296;6.900;2023-02-03T06:18:40;4.60;;;1.83;;
66567;SDS011;53422;49.296;6.900;2023-02-03T06:21:06;5.15;;;2.47;;
66567;SDS011;53422;49.296;6.900;2023-02-03T06:23:32;4.38;;;2.00;;
66567;SDS011;53422;49.296;6.900;2023-02-03T06:25:57;4.07;;;2.28;;
66567;SDS011;53422;49.296;6.900;2023-02-03T06:28:24;4.85;;;1.80;;
66567;SDS011;53422;49.296;6.900;2023-02-03T06:30:51;3.47;;;1.73;;
66567;SDS011;53422;49.296;6.900;2023-02-03T06:33:17;3.42;;;1.58;;
66567;SDS011;53422;49.296;6.900;2023-02-03T06:35:43;4.20;;;1.75;;
66567;SDS011;53422;49.296;6.900;2023-02-03T06:38:09;4.78;;;2.20;;
66567;SDS011;53422;49.296;6.900;2023-02-03T06:40:35;4.95;;;1.85;;
66567;SDS011;53422;49.296;6.900;2023-02-03T06:43:01;3.70;;;1.60;;
66567;SDS011;53422;49.296;6.900;2023-02-03T06:45:27;6.15;;;2.45;;
66567;SDS011;53422;49.296;6.900;2023-02-03T06:47:52;4.63;;;1.98;;
66567;SDS011;53422;49.296;6.900;2023-02-03T06:50:18;5.63;;;2.40;;
66567;SDS011;53422;49.296;6.900;2023-02-03T06:52:44;4.53;;;1.50;;
66567;SDS011;53422;49.296;6.900;2023-02-03T06:55:10;4.60;;;2.03;;
66567;SDS011;53422;49.296;6.900;2023-02-03T06:57:41;5.25;;;2.22;;
66567;SDS011;53422;49.296;6.900;2023-02-03T07:00:11;5.88;;;1.52;;
66567;SDS011;53422;49.296;6.900;2023-02-03T07:02:38;3.38;;;1.83;;
66567;SDS011;53422;49.296;6.900;2023-02-03T07:05:04;3.05;;;1.70;;
66567;SDS011;53422;49.296;6.900;2023-02-03T07:07:30;7.22;;;2.08;;
66567;SDS011;53422;49.296;6.900;2023-02-03T07:09:57;3.88;;;1.80;;
66567;SDS011;53422;49.296;6.900;2023-02-03T07:12:22;1.17;;;0.57;;
66567;SDS011;53422;49.296;6.900;2023-02-03T07:14:48;7.45;;;1.55;;
66567;SDS011;53422;49.296;6.900;2023-02-03T07:17:17;4.18;;;2.17;;
66567;SDS011;53422;49.296;6.900;2023-02-03T07:19:42;3.78;;;1.65;;
66567;SDS011;53422;49.296;6.900;2023-02-03T07:22:11;4.22;;;1.90;;
66567;SDS011;53422;49.296;6.900;2023-02-03T07:24:37;3.22;;;1.60;;
66567;SDS011;53422;49.296;6.900;2023-02-03T07:27:03;5.30;;;2.15;;
66567;SDS011;53422;49.296;6.900;2023-02-03T07:29:28;3.33;;;1.17;;
66567;SDS011;53422;49.296;6.900;2023-02-03T07:31:54;5.75;;;2.10;;
66567;SDS011;53422;49.296;6.900;2023-02-03T07:34:20;4.40;;;1.60;;
66567;SDS011;53422;49.296;6.900;2023-02-03T07:36:45;3.35;;;1.50;;
66567;SDS011;53422;49.296;6.900;2023-02-03T07:39:11;4.35;;;2.22;;
66567;SDS011;53422;49.296;6.900;2023-02-03T07:41:37;6.45;;;1.88;;
66567;SDS011;53422;49.296;6.900;2023-02-03T07:44:02;2.17;;;1.20;;
66567;SDS011;53422;49.296;6.900;2023-02-03T07:46:29;3.53;;;2.00;;
66567;SDS011;53422;49.296;6.900;2023-02-03T07:48:54;5.00;;;2.38;;
66567;SDS011;53422;49.296;6.900;2023-02-03T07:51:20;3.30;;;1.30;;
66567;SDS011;53422;49.296;6.900;2023-02-03T07:53:46;4.95;;;1.90;;
66567;SDS011;53422;49.296;6.900;2023-02-03T07:56:12;4.55;;;1.92;;
66567;SDS011;53422;49.296;6.900;2023-02-03T07:58:37;4.70;;;2.35;;
66567;SDS011;53422;49.296;6.900;2023-02-03T08:01:10;4.57;;;1.52;;
66567;SDS011;53422;49.296;6.900;2023-02-03T08:03:38;6.60;;;2.00;;
66567;SDS011;53422;49.296;6.900;2023-02-03T08:06:04;4.45;;;2.47;;
66567;SDS011;53422;49.296;6.900;2023-02-03T08:08:30;3.25;;;1.52;;
66567;SDS011;53422;49.296;6.900;2023-02-03T08:10:56;5.05;;;2.10;;
66567;SDS011;53422;49.296;6.900;2023-02-03T08:13:22;4.88;;;1.88;;
66567;SDS011;53422;49.296;6.900;2023-02-03T08:15:47;5.45;;;2.70;;
66567;SDS011;53422;49.296;6.900;2023-02-03T08:18:13;4.95;;;1.90;;
66567;SDS011;53422;49.296;6.900;2023-02-03T08:20:39;4.50;;;1.30;;
66567;SDS011;53422;49.296;6.900;2023-02-03T08:23:04;3.25;;;1.48;;
66567;SDS011;53422;49.296;6.900;2023-02-03T08:25:30;4.45;;;2.10;;
66567;SDS011;53422;49.296;6.900;2023-02-03T08:27:56;3.50;;;1.60;;
66567;SDS011;53422;49.296;6.900;2023-02-03T08:30:22;4.30;;;1.67;;
66567;SDS011;53422;49.296;6.900;2023-02-03T08:32:48;3.20;;;1.75;;
66567;SDS011;53422;49.296;6.900;2023-02-03T08:35:13;4.05;;;1.85;;
66567;SDS011;53422;49.296;6.900;2023-02-03T08:37:40;4.30;;;1.95;;
66567;SDS011;53422;49.296;6.900;2023-02-03T08:40:06;3.22;;;1.27;;
66567;SDS011;53422;49.296;6.900;2023-02-03T08:42:33;3.47;;;1.58;;
66567;SDS011;53422;49.296;6.900;2023-02-03T08:44:59;1.70;;;1.17;;
66567;SDS011;53422;49.296;6.900;2023-02-03T08:47:24;4.00;;;1.70;;
66567;SDS011;53422;49.296;6.900;2023-02-03T08:49:50;2.70;;;1.25;;
66567;SDS011;53422;49.296;6.900;2023-02-03T08:52:16;3.60;;;1.40;;
66567;SDS011;53422;49.296;6.900;2023-02-03T08:54:42;3.63;;;1.08;;
66567;SDS011;53422;49.296;6.900;2023-02-03T08:57:09;2.90;;;1.30;;
66567;SDS011;53422;49.296;6.900;2023-02-03T08:59:36;2.88;;;1.20;;
66567;SDS011;53422;49.296;6.900;2023-02-03T09:02:05;4.20;;;1.55;;
66567;SDS011;53422;49.296;6.900;2023-02-03T09:04:32;3.83;;;1.67;;
66567;SDS011;53422;49.296;6.900;2023-02-03T09:06:59;3.55;;;1.75;;
66567;SDS011;53422;49.296;6.900;2023-02-03T09:09:25;5.25;;;1.73;;
66567;SDS011;53422;49.296;6.900;2023-02-03T09:11:51;2.22;;;1.00;;
66567;SDS011;53422;49.296;6.900;2023-02-03T09:16:44;8.88;;;3.67;;
66567;SDS011;53422;49.296;6.900;2023-02-03T09:19:10;14.48;;;5.93;;
66567;SDS011;53422;49.296;6.900;2023-02-03T09:21:37;16.55;;;7.22;;
66567;SDS011;53422;49.296;6.900;2023-02-03T09:24:03;9.82;;;4.00;;
66567;SDS011;53422;49.296;6.900;2023-02-03T09:26:29;5.85;;;2.47;;
66567;SDS011;53422;49.296;6.900;2023-02-03T09:28:54;5.18;;;2.30;;
66567;SDS011;53422;49.296;6.900;2023-02-03T09:31:20;5.30;;;2.50;;
66567;SDS011;53422;49.296;6.900;2023-02-03T09:33:46;8.07;;;4.38;;
66567;SDS011;53422;49.296;6.900;2023-02-03T09:36:11;4.95;;;3.17;;
66567;SDS011;53422;49.296;6.900;2023-02-03T09:38:37;3.60;;;1.80;;
66567;SDS011;53422;49.296;6.900;2023-02-03T09:43:40;3.33;;;1.63;;
66567;SDS011;53422;49.296;6.900;2023-02-03T09:48:46;3.03;;;1.20;;
66567;SDS011;53422;49.296;6.900;2023-02-03T09:51:27;2.08;;;1.17;;
66567;SDS011;53422;49.296;6.900;2023-02-03T09:53:57;2.70;;;1.33;;
66567;SDS011;53422;49.296;6.900;2023-02-03T09:56:31;2.90;;;1.42;;
66567;SDS011;53422;49.296;6.900;2023-02-03T09:58:59;2.70;;;1.10;;
66567;SDS011;53422;49.296;6.900;2023-02-03T10:01:27;3.67;;;1.58;;
66567;SDS011;53422;49.296;6.900;2023-02-03T10:04:31;1.80;;;1.00;;
66567;SDS011;53422;49.296;6.900;2023-02-03T10:07:22;3.47;;;1.30;;
66567;SDS011;53422;49.296;6.900;2023-02-03T10:10:11;1.67;;;0.80;;
66567;SDS011;53422;49.296;6.900;2023-02-03T10:18:52;4.25;;;1.50;;
66567;SDS011;53422;49.296;6.900;2023-02-03T10:21:34;1.30;;;0.63;;
66567;SDS011;53422;49.296;6.900;2023-02-03T10:24:11;2.13;;;1.30;;
66567;SDS011;53422;49.296;6.900;2023-02-03T10:26:41;1.92;;;0.93;;
66567;SDS011;53422;49.296;6.900;2023-02-03T10:29:12;2.38;;;1.00;;
66567;SDS011;53422;49.296;6.900;2023-02-03T10:31:40;2.88;;;1.85;;
66567;SDS011;53422;49.296;6.900;2023-02-03T10:34:08;2.08;;;1.48;;
66567;SDS011;53422;49.296;6.900;2023-02-03T10:36:57;1.30;;;0.80;;
66567;SDS011;53422;49.296;6.900;2023-02-03T10:42:07;2.95;;;1.63;;
66567;SDS011;53422;49.296;6.900;2023-02-03T10:44:36;2.00;;;1.20;;
66567;SDS011;53422;49.296;6.900;2023-02-03T10:47:09;4.80;;;1.17;;
66567;SDS011;53422;49.296;6.900;2023-02-03T10:49:51;1.20;;;0.70;;
66567;SDS011;53422;49.296;6.900;2023-02-03T10:52:29;1.65;;;1.00;;
66567;SDS011;53422;49.296;6.900;2023-02-03T10:55:05;3.05;;;1.10;;
66567;SDS011;53422;49.296;6.900;2023-02-03T10:57:46;1.67;;;1.13;;
66567;SDS011;53422;49.296;6.900;2023-02-03T11:00:23;3.17;;;1.13;;
66567;SDS011;53422;49.296;6.900;2023-02-03T11:05:27;2.40;;;1.05;;
66567;SDS011;53422;49.296;6.900;2023-02-03T11:07:53;2.22;;;1.50;;
66567;SDS011;53422;49.296;6.900;2023-02-03T11:12:51;0.93;;;0.50;;
66567;SDS011;53422;49.296;6.900;2023-02-03T11:15:28;1.77;;;1.00;;
66567;SDS011;53422;49.296;6.900;2023-02-03T11:17:53;1.27;;;0.73;;
66567;SDS011;53422;49.296;6.900;2023-02-03T11:20:19;0.95;;;0.73;;
66567;SDS011;53422;49.296;6.900;2023-02-03T11:22:46;1.85;;;0.82;;
66567;SDS011;53422;49.296;6.900;2023-02-03T11:25:16;1.80;;;0.85;;
66567;SDS011;53422;49.296;6.900;2023-02-03T11:27:45;1.67;;;0.60;;
66567;SDS011;53422;49.296;6.900;2023-02-03T11:30:15;1.63;;;0.80;;
66567;SDS011;53422;49.296;6.900;2023-02-03T11:32:49;2.15;;;1.02;;
66567;SDS011;53422;49.296;6.900;2023-02-03T11:37:48;1.52;;;0.77;;
66567;SDS011;53422;49.296;6.900;2023-02-03T11:42:45;1.90;;;1.05;;
66567;SDS011;53422;49.296;6.900;2023-02-03T11:48:17;2.38;;;0.90;;
66567;SDS011;53422;49.296;6.900;2023-02-03T12:08:12;1.83;;;0.90;;
66567;SDS011;53422;49.296;6.900;2023-02-03T12:11:13;0.98;;;0.63;;
66567;SDS011;53422;49.296;6.900;2023-02-03T12:14:23;0.88;;;0.60;;
66567;SDS011;53422;49.296;6.900;2023-02-03T12:20:21;1.27;;;0.60;;
66567;SDS011;53422;49.296;6.900;2023-02-03T12:31:48;2.03;;;0.93;;
66567;SDS011;53422;49.296;6.900;2023-02-03T12:36:38;0.95;;;0.40;;
66567;SDS011;53422;49.296;6.900;2023-02-03T12:41:34;3.28;;;1.40;;
66567;SDS011;53422;49.296;6.900;2023-02-03T12:44:14;0.95;;;0.60;;
66567;SDS011;53422;49.296;6.900;2023-02-03T12:46:54;1.58;;;0.50;;
66567;SDS011;53422;49.296;6.900;2023-02-03T12:49:29;1.83;;;0.85;;
66567;SDS011;53422;49.296;6.900;2023-02-03T12:52:16;1.40;;;0.68;;
66567;SDS011;53422;49.296;6.900;2023-02-03T12:57:40;1.17;;;0.95;;
66567;SDS011;53422;49.296;6.900;2023-02-03T13:00:17;1.92;;;0.85;;
66567;SDS011;53422;49.296;6.900;2023-02-03T13:08:08;2.15;;;0.98;;
66567;SDS011;53422;49.296;6.900;2023-02-03T13:10:47;2.03;;;0.88;;
66567;SDS011;53422;49.296;6.900;2023-02-03T13:13:19;1.52;;;0.43;;
66567;SDS011;53422;49.296;6.900;2023-02-03T13:15:52;4.88;;;1.50;;
66567;SDS011;53422;49.296;6.900;2023-02-03T13:21:00;2.80;;;1.00;;
66567;SDS011;53422;49.296;6.900;2023-02-03T13:23:26;1.92;;;0.70;;
66567;SDS011;53422;49.296;6.900;2023-02-03T13:29:08;1.63;;;0.60;;
66567;SDS011;53422;49.296;6.900;2023-02-03T13:37:15;2.05;;;1.10;;
66567;SDS011;53422;49.296;6.900;2023-02-03T13:42:31;1.63;;;0.85;;
66567;SDS011;53422;49.296;6.900;2023-02-03T13:45:17;1.38;;;0.85;;
66567;SDS011;53422;49.296;6.900;2023-02-03T13:47:55;1.08;;;0.68;;
66567;SDS011;53422;49.296;6.900;2023-02-03T13:50:33;1.13;;;0.65;;
66567;SDS011;53422;49.296;6.900;2023-02-03T13:53:02;1.92;;;0.90;;
66567;SDS011;53422;49.296;6.900;2023-02-03T13:55:39;1.80;;;0.85;;
66567;SDS011;53422;49.296;6.900;2023-02-03T13:58:18;1.45;;;0.70;;
66567;SDS011;53422;49.296;6.900;2023-02-03T14:00:57;2.28;;;0.73;;
66567;SDS011;53422;49.296;6.900;2023-02-03T14:05:51;1.98;;;1.10;;
66567;SDS011;53422;49.296;6.900;2023-02-03T14:19:03;2.50;;;0.90;;
66567;SDS011;53422;49.296;6.900;2023-02-03T14:24:18;2.35;;;1.40;;
66567;SDS011;53422;49.296;6.900;2023-02-03T14:26:52;3.08;;;1.23;;
66567;SDS011;53422;49.296;6.900;2023-02-03T14:29:32;1.20;;;0.77;;
66567;SDS011;53422;49.296;6.900;2023-02-03T14:32:07;1.60;;;0.70;;
66567;SDS011;53422;49.296;6.900;2023-02-03T14:34:35;2.63;;;0.90;;
66567;SDS011;53422;49.296;6.900;2023-02-03T14:37:16;1.77;;;0.95;;
66567;SDS011;53422;49.296;6.900;2023-02-03T14:42:52;2.38;;;1.17;;
66567;SDS011;53422;49.296;6.900;2023-02-03T14:56:11;2.50;;;1.27;;
66567;SDS011;53422;49.296;6.900;2023-02-03T14:58:51;3.13;;;1.00;;
66567;SDS011;53422;49.296;6.900;2023-02-03T15:06:38;4.05;;;1.60;;
66567;SDS011;53422;49.296;6.900;2023-02-03T15:09:49;3.90;;;1.40;;
66567;SDS011;53422;49.296;6.900;2023-02-03T15:11:58;4.85;;;2.50;;
66567;SDS011;53422;49.296;6.900;2023-02-03T15:14:25;3.55;;;1.45;;
66567;SDS011;53422;49.296;6.900;2023-02-03T15:17:01;1.98;;;1.08;;
66567;SDS011;53422;49.296;6.900;2023-02-03T15:19:37;2.42;;;1.38;;
66567;SDS011;53422;49.296;6.900;2023-02-03T15:22:24;2.20;;;1.10;;
66567;SDS011;53422;49.296;6.900;2023-02-03T15:24:52;3.00;;;1.70;;
66567;SDS011;53422;49.296;6.900;2023-02-03T15:27:22;3.67;;;1.13;;
66567;SDS011;53422;49.296;6.900;2023-02-03T15:29:50;2.42;;;1.33;;
66567;SDS011;53422;49.296;6.900;2023-02-03T15:32:23;3.58;;;1.80;;
66567;SDS011;53422;49.296;6.900;2023-02-03T15:34:54;2.70;;;1.30;;
66567;SDS011;53422;49.296;6.900;2023-02-03T15:39:59;2.55;;;1.48;;
66567;SDS011;53422;49.296;6.900;2023-02-03T15:42:52;1.70;;;1.13;;
66567;SDS011;53422;49.296;6.900;2023-02-03T15:45:33;2.30;;;1.02;;
66567;SDS011;53422;49.296;6.900;2023-02-03T15:50:42;2.83;;;1.02;;
66567;SDS011;53422;49.296;6.900;2023-02-03T15:53:18;2.80;;;1.20;;
66567;SDS011;53422;49.296;6.900;2023-02-03T15:55:49;4.28;;;1.23;;
66567;SDS011;53422;49.296;6.900;2023-02-03T15:58:18;2.60;;;1.27;;
66567;SDS011;53422;49.296;6.900;2023-02-03T16:00:48;1.88;;;1.00;;
66567;SDS011;53422;49.296;6.900;2023-02-03T16:03:32;1.98;;;1.05;;
66567;SDS011;53422;49.296;6.900;2023-02-03T16:06:22;9.07;;;1.88;;
66567;SDS011;53422;49.296;6.900;2023-02-03T16:08:52;1.27;;;0.60;;
66567;SDS011;53422;49.296;6.900;2023-02-03T16:13:50;1.13;;;0.57;;
66567;SDS011;53422;49.296;6.900;2023-02-03T16:16:17;2.45;;;1.05;;
66567;SDS011;53422;49.296;6.900;2023-02-03T16:18:49;2.88;;;1.40;;
66567;SDS011;53422;49.296;6.900;2023-02-03T16:21:34;1.77;;;0.65;;
66567;SDS011;53422;49.296;6.900;2023-02-03T16:24:26;3.15;;;1.48;;
66567;SDS011;53422;49.296;6.900;2023-02-03T16:29:49;3.95;;;1.73;;
66567;SDS011;53422;49.296;6.900;2023-02-03T16:32:34;3.05;;;1.40;;
66567;SDS011;53422;49.296;6.900;2023-02-03T16:35:19;2.20;;;1.05;;
66567;SDS011;53422;49.296;6.900;2023-02-03T16:38:09;2.80;;;1.20;;
66567;SDS011;53422;49.296;6.900;2023-02-03T16:40:58;2.67;;;1.17;;
66567;SDS011;53422;49.296;6.900;2023-02-03T16:43:43;2.95;;;1.52;;
66567;SDS011;53422;49.296;6.900;2023-02-03T16:46:27;3.35;;;1.20;;
66567;SDS011;53422;49.296;6.900;2023-02-03T16:49:12;3.75;;;1.50;;
66567;SDS011;53422;49.296;6.900;2023-02-03T16:51:56;5.40;;;2.00;;
66567;SDS011;53422;49.296;6.900;2023-02-03T16:54:21;2.78;;;1.35;;
66567;SDS011;53422;49.296;6.900;2023-02-03T16:56:48;1.45;;;0.75;;
66567;SDS011;53422;49.296;6.900;2023-02-03T16:59:16;2.60;;;1.23;;
66567;SDS011;53422;49.296;6.900;2023-02-03T17:01:41;2.97;;;1.45;;
66567;SDS011;53422;49.296;6.900;2023-02-03T17:04:08;2.75;;;1.50;;
66567;SDS011;53422;49.296;6.900;2023-02-03T17:06:36;4.32;;;1.58;;
66567;SDS011;53422;49.296;6.900;2023-02-03T17:09:02;3.60;;;1.70;;
66567;SDS011;53422;49.296;6.900;2023-02-03T17:11:28;3.95;;;1.48;;
66567;SDS011;53422;49.296;6.900;2023-02-03T17:13:53;4.50;;;2.20;;
66567;SDS011;53422;49.296;6.900;2023-02-03T17:16:20;2.67;;;1.50;;
66567;SDS011;53422;49.296;6.900;2023-02-03T17:18:48;3.92;;;1.95;;
66567;SDS011;53422;49.296;6.900;2023-02-03T17:21:16;3.25;;;1.50;;
66567;SDS011;53422;49.296;6.900;2023-02-03T17:23:47;6.25;;;2.00;;
66567;SDS011;53422;49.296;6.900;2023-02-03T17:26:12;3.38;;;1.80;;
66567;SDS011;53422;49.296;6.900;2023-02-03T17:28:39;3.28;;;1.15;;
66567;SDS011;53422;49.296;6.900;2023-02-03T17:31:07;2.83;;;1.10;;
66567;SDS011;53422;49.296;6.900;2023-02-03T17:33:35;3.55;;;1.60;;
66567;SDS011;53422;49.296;6.900;2023-02-03T17:36:07;3.10;;;1.40;;